sensor_id;sensor_type;location;lat;lon;timestamp;P1;durP1;ratioP1;P2;durP2;ratioP2
50495;SDS011;38806;51.554;5.704;2022-07-24T00:00:32;26.88;;;22.60;;
50495;SDS011;38806;51.554;5.704;2022-07-24T00:02:32;26.48;;;18.48;;
50495;SDS011;38806;51.554;5.704;2022-07-24T00:04:32;25.33;;;20.50;;
50495;SDS011;38806;51.554;5.704;2022-07-24T00:06:33;24.25;;;18.65;;
50495;SDS011;38806;51.554;5.704;2022-07-24T00:08:33;26.60;;;20.17;;
50495;SDS011;38806;51.554;5.704;2022-07-24T00:10:33;24.30;;;17.95;;
50495;SDS011;38806;51.554;5.704;2022-07-24T00:12:34;25.30;;;18.30;;
50495;SDS011;38806;51.554;5.704;2022-07-24T00:14:35;22.67;;;18.23;;
50495;SDS011;38806;51.554;5.704;2022-07-24T00:16:35;21.92;;;17.52;;
50495;SDS011;38806;51.554;5.704;2022-07-24T00:18:35;24.70;;;19.35;;
50495;SDS011;38806;51.554;5.704;2022-07-24T00:20:36;24.40;;;19.85;;
50495;SDS011;38806;51.554;5.704;2022-07-24T00:22:36;25.85;;;19.50;;
50495;SDS011;38806;51.554;5.704;2022-07-24T00:24:36;31.25;;;22.50;;
50495;SDS011;38806;51.554;5.704;2022-07-24T00:26:36;26.38;;;18.90;;
50495;SDS011;38806;51.554;5.704;2022-07-24T00:28:37;25.33;;;19.75;;
50495;SDS011;38806;51.554;5.704;2022-07-24T00:30:37;29.63;;;20.88;;
50495;SDS011;38806;51.554;5.704;2022-07-24T00:32:38;28.98;;;20.10;;
50495;SDS011;38806;51.554;5.704;2022-07-24T00:34:38;24.70;;;18.85;;
50495;SDS011;38806;51.554;5.704;2022-07-24T00:36:38;24.25;;;18.08;;
50495;SDS011;38806;51.554;5.704;2022-07-24T00:38:42;25.35;;;18.90;;
50495;SDS011;38806;51.554;5.704;2022-07-24T00:40:42;25.10;;;19.35;;
50495;SDS011;38806;51.554;5.704;2022-07-24T00:42:42;22.73;;;18.73;;
50495;SDS011;38806;51.554;5.704;2022-07-24T00:44:43;24.75;;;18.30;;
50495;SDS011;38806;51.554;5.704;2022-07-24T00:46:44;24.67;;;20.17;;
50495;SDS011;38806;51.554;5.704;2022-07-24T00:48:45;26.48;;;20.60;;
50495;SDS011;38806;51.554;5.704;2022-07-24T00:50:45;24.70;;;20.05;;
50495;SDS011;38806;51.554;5.704;2022-07-24T00:52:46;25.27;;;19.02;;
50495;SDS011;38806;51.554;5.704;2022-07-24T00:54:47;28.83;;;19.80;;
50495;SDS011;38806;51.554;5.704;2022-07-24T00:56:48;24.63;;;18.63;;
50495;SDS011;38806;51.554;5.704;2022-07-24T00:58:51;25.95;;;20.13;;
50495;SDS011;38806;51.554;5.704;2022-07-24T01:00:51;23.60;;;18.75;;
50495;SDS011;38806;51.554;5.704;2022-07-24T01:02:54;25.67;;;18.08;;
50495;SDS011;38806;51.554;5.704;2022-07-24T01:04:54;24.85;;;19.00;;
50495;SDS011;38806;51.554;5.704;2022-07-24T01:06:55;24.20;;;19.52;;
50495;SDS011;38806;51.554;5.704;2022-07-24T01:08:55;25.15;;;19.58;;
50495;SDS011;38806;51.554;5.704;2022-07-24T01:10:56;25.10;;;17.40;;
50495;SDS011;38806;51.554;5.704;2022-07-24T01:12:56;25.63;;;18.98;;
50495;SDS011;38806;51.554;5.704;2022-07-24T01:14:57;23.10;;;17.95;;
50495;SDS011;38806;51.554;5.704;2022-07-24T01:16:57;32.45;;;22.27;;
50495;SDS011;38806;51.554;5.704;2022-07-24T01:18:58;24.80;;;17.65;;
50495;SDS011;38806;51.554;5.704;2022-07-24T01:20:58;26.52;;;20.30;;
50495;SDS011;38806;51.554;5.704;2022-07-24T01:22:58;27.92;;;19.83;;
50495;SDS011;38806;51.554;5.704;2022-07-24T01:24:58;27.33;;;19.25;;
50495;SDS011;38806;51.554;5.704;2022-07-24T01:26:59;24.50;;;19.20;;
50495;SDS011;38806;51.554;5.704;2022-07-24T01:28:59;24.35;;;18.73;;
50495;SDS011;38806;51.554;5.704;2022-07-24T01:30:59;24.63;;;17.98;;
50495;SDS011;38806;51.554;5.704;2022-07-24T01:33:00;27.00;;;19.92;;
50495;SDS011;38806;51.554;5.704;2022-07-24T01:35:00;24.33;;;19.00;;
50495;SDS011;38806;51.554;5.704;2022-07-24T01:37:00;28.42;;;19.85;;
50495;SDS011;38806;51.554;5.704;2022-07-24T01:39:01;29.40;;;21.10;;
50495;SDS011;38806;51.554;5.704;2022-07-24T01:41:01;23.83;;;18.38;;
50495;SDS011;38806;51.554;5.704;2022-07-24T01:43:02;25.80;;;19.23;;
50495;SDS011;38806;51.554;5.704;2022-07-24T01:45:03;25.00;;;19.27;;
50495;SDS011;38806;51.554;5.704;2022-07-24T01:47:03;26.90;;;21.02;;
50495;SDS011;38806;51.554;5.704;2022-07-24T01:49:04;24.55;;;19.25;;
50495;SDS011;38806;51.554;5.704;2022-07-24T01:51:04;25.67;;;18.63;;
50495;SDS011;38806;51.554;5.704;2022-07-24T01:53:05;26.17;;;18.85;;
50495;SDS011;38806;51.554;5.704;2022-07-24T01:55:05;29.15;;;20.15;;
50495;SDS011;38806;51.554;5.704;2022-07-24T01:57:06;23.45;;;18.48;;
50495;SDS011;38806;51.554;5.704;2022-07-24T01:59:06;26.35;;;19.77;;
50495;SDS011;38806;51.554;5.704;2022-07-24T02:01:07;22.90;;;18.50;;
50495;SDS011;38806;51.554;5.704;2022-07-24T02:03:07;22.60;;;18.40;;
50495;SDS011;38806;51.554;5.704;2022-07-24T02:05:07;26.33;;;18.45;;
50495;SDS011;38806;51.554;5.704;2022-07-24T02:07:08;27.55;;;19.63;;
50495;SDS011;38806;51.554;5.704;2022-07-24T02:09:08;23.45;;;19.10;;
50495;SDS011;38806;51.554;5.704;2022-07-24T02:11:08;26.42;;;19.63;;
50495;SDS011;38806;51.554;5.704;2022-07-24T02:13:09;30.58;;;22.30;;
50495;SDS011;38806;51.554;5.704;2022-07-24T02:15:09;29.80;;;19.23;;
50495;SDS011;38806;51.554;5.704;2022-07-24T02:17:10;30.38;;;22.00;;
50495;SDS011;38806;51.554;5.704;2022-07-24T02:19:10;24.60;;;18.42;;
50495;SDS011;38806;51.554;5.704;2022-07-24T02:21:10;29.20;;;21.17;;
50495;SDS011;38806;51.554;5.704;2022-07-24T02:23:11;29.65;;;20.08;;
50495;SDS011;38806;51.554;5.704;2022-07-24T02:25:12;29.67;;;22.17;;
50495;SDS011;38806;51.554;5.704;2022-07-24T02:27:13;28.23;;;21.60;;
50495;SDS011;38806;51.554;5.704;2022-07-24T02:29:14;28.83;;;20.33;;
50495;SDS011;38806;51.554;5.704;2022-07-24T02:31:14;29.48;;;18.88;;
50495;SDS011;38806;51.554;5.704;2022-07-24T02:33:15;35.20;;;19.50;;
50495;SDS011;38806;51.554;5.704;2022-07-24T02:35:15;32.80;;;20.15;;
50495;SDS011;38806;51.554;5.704;2022-07-24T02:37:16;28.92;;;19.70;;
50495;SDS011;38806;51.554;5.704;2022-07-24T02:39:16;25.38;;;18.67;;
50495;SDS011;38806;51.554;5.704;2022-07-24T02:41:17;25.83;;;19.23;;
50495;SDS011;38806;51.554;5.704;2022-07-24T02:43:17;25.35;;;17.65;;
50495;SDS011;38806;51.554;5.704;2022-07-24T02:45:18;25.23;;;18.05;;
50495;SDS011;38806;51.554;5.704;2022-07-24T02:47:18;36.40;;;18.70;;
50495;SDS011;38806;51.554;5.704;2022-07-24T02:49:19;21.63;;;17.48;;
50495;SDS011;38806;51.554;5.704;2022-07-24T02:51:19;23.77;;;18.08;;
50495;SDS011;38806;51.554;5.704;2022-07-24T02:53:19;25.95;;;18.75;;
50495;SDS011;38806;51.554;5.704;2022-07-24T02:55:19;25.88;;;17.40;;
50495;SDS011;38806;51.554;5.704;2022-07-24T02:57:20;26.38;;;17.48;;
50495;SDS011;38806;51.554;5.704;2022-07-24T02:59:20;23.52;;;18.40;;
50495;SDS011;38806;51.554;5.704;2022-07-24T03:01:20;23.75;;;17.27;;
50495;SDS011;38806;51.554;5.704;2022-07-24T03:03:21;22.30;;;16.45;;
50495;SDS011;38806;51.554;5.704;2022-07-24T03:05:21;21.98;;;17.83;;
50495;SDS011;38806;51.554;5.704;2022-07-24T03:07:22;23.58;;;16.85;;
50495;SDS011;38806;51.554;5.704;2022-07-24T03:09:22;23.05;;;15.55;;
50495;SDS011;38806;51.554;5.704;2022-07-24T03:11:22;24.70;;;17.33;;
50495;SDS011;38806;51.554;5.704;2022-07-24T03:13:23;27.20;;;20.10;;
50495;SDS011;38806;51.554;5.704;2022-07-24T03:15:23;21.35;;;17.58;;
50495;SDS011;38806;51.554;5.704;2022-07-24T03:17:23;20.48;;;16.58;;
50495;SDS011;38806;51.554;5.704;2022-07-24T03:19:23;22.23;;;17.27;;
50495;SDS011;38806;51.554;5.704;2022-07-24T03:21:24;25.60;;;18.23;;
50495;SDS011;38806;51.554;5.704;2022-07-24T03:23:24;26.35;;;19.38;;
50495;SDS011;38806;51.554;5.704;2022-07-24T03:25:24;23.25;;;16.85;;
50495;SDS011;38806;51.554;5.704;2022-07-24T03:27:25;25.20;;;17.30;;
50495;SDS011;38806;51.554;5.704;2022-07-24T03:29:25;25.98;;;18.10;;
50495;SDS011;38806;51.554;5.704;2022-07-24T03:31:25;26.85;;;19.83;;
50495;SDS011;38806;51.554;5.704;2022-07-24T03:33:26;23.63;;;17.67;;
50495;SDS011;38806;51.554;5.704;2022-07-24T03:35:27;27.98;;;20.88;;
50495;SDS011;38806;51.554;5.704;2022-07-24T03:37:27;28.42;;;21.00;;
50495;SDS011;38806;51.554;5.704;2022-07-24T03:39:27;29.20;;;21.40;;
50495;SDS011;38806;51.554;5.704;2022-07-24T03:41:28;26.33;;;20.70;;
50495;SDS011;38806;51.554;5.704;2022-07-24T03:43:28;30.20;;;22.30;;
50495;SDS011;38806;51.554;5.704;2022-07-24T03:45:29;26.65;;;22.08;;
50495;SDS011;38806;51.554;5.704;2022-07-24T03:47:29;28.45;;;22.52;;
50495;SDS011;38806;51.554;5.704;2022-07-24T03:49:29;28.35;;;21.60;;
50495;SDS011;38806;51.554;5.704;2022-07-24T03:51:29;26.90;;;21.15;;
50495;SDS011;38806;51.554;5.704;2022-07-24T03:53:30;30.75;;;22.17;;
50495;SDS011;38806;51.554;5.704;2022-07-24T03:55:30;29.40;;;22.02;;
50495;SDS011;38806;51.554;5.704;2022-07-24T03:57:31;24.65;;;19.45;;
50495;SDS011;38806;51.554;5.704;2022-07-24T03:59:31;28.95;;;21.45;;
50495;SDS011;38806;51.554;5.704;2022-07-24T04:01:32;31.15;;;21.52;;
50495;SDS011;38806;51.554;5.704;2022-07-24T04:03:32;31.88;;;22.23;;
50495;SDS011;38806;51.554;5.704;2022-07-24T04:05:33;30.20;;;21.75;;
50495;SDS011;38806;51.554;5.704;2022-07-24T04:07:33;30.80;;;21.98;;
50495;SDS011;38806;51.554;5.704;2022-07-24T04:09:33;32.13;;;21.20;;
50495;SDS011;38806;51.554;5.704;2022-07-24T04:11:34;25.88;;;20.60;;
50495;SDS011;38806;51.554;5.704;2022-07-24T04:13:34;30.00;;;22.38;;
50495;SDS011;38806;51.554;5.704;2022-07-24T04:15:35;31.50;;;21.23;;
50495;SDS011;38806;51.554;5.704;2022-07-24T04:17:39;26.92;;;20.70;;
50495;SDS011;38806;51.554;5.704;2022-07-24T04:19:40;25.70;;;20.48;;
50495;SDS011;38806;51.554;5.704;2022-07-24T04:21:41;28.40;;;21.20;;
50495;SDS011;38806;51.554;5.704;2022-07-24T04:23:41;28.95;;;19.60;;
50495;SDS011;38806;51.554;5.704;2022-07-24T04:25:41;28.10;;;19.95;;
50495;SDS011;38806;51.554;5.704;2022-07-24T04:27:42;31.05;;;21.67;;
50495;SDS011;38806;51.554;5.704;2022-07-24T04:29:43;32.13;;;20.25;;
50495;SDS011;38806;51.554;5.704;2022-07-24T04:31:43;26.58;;;21.95;;
50495;SDS011;38806;51.554;5.704;2022-07-24T04:33:45;29.10;;;21.23;;
50495;SDS011;38806;51.554;5.704;2022-07-24T04:35:45;28.27;;;20.58;;
50495;SDS011;38806;51.554;5.704;2022-07-24T04:37:45;25.33;;;19.67;;
50495;SDS011;38806;51.554;5.704;2022-07-24T04:39:46;24.02;;;20.55;;
50495;SDS011;38806;51.554;5.704;2022-07-24T04:41:46;32.85;;;21.70;;
50495;SDS011;38806;51.554;5.704;2022-07-24T04:43:46;26.10;;;20.30;;
50495;SDS011;38806;51.554;5.704;2022-07-24T04:45:47;27.40;;;20.60;;
50495;SDS011;38806;51.554;5.704;2022-07-24T04:47:47;23.48;;;20.65;;
50495;SDS011;38806;51.554;5.704;2022-07-24T04:49:47;31.85;;;22.85;;
50495;SDS011;38806;51.554;5.704;2022-07-24T04:51:47;32.83;;;25.40;;
50495;SDS011;38806;51.554;5.704;2022-07-24T04:53:48;29.88;;;24.58;;
50495;SDS011;38806;51.554;5.704;2022-07-24T04:55:52;30.10;;;22.95;;
50495;SDS011;38806;51.554;5.704;2022-07-24T04:57:53;39.10;;;25.67;;
50495;SDS011;38806;51.554;5.704;2022-07-24T04:59:53;33.13;;;24.35;;
50495;SDS011;38806;51.554;5.704;2022-07-24T05:01:53;32.10;;;23.70;;
50495;SDS011;38806;51.554;5.704;2022-07-24T05:03:54;34.00;;;24.38;;
50495;SDS011;38806;51.554;5.704;2022-07-24T05:05:56;34.15;;;25.55;;
50495;SDS011;38806;51.554;5.704;2022-07-24T05:07:56;28.00;;;24.02;;
50495;SDS011;38806;51.554;5.704;2022-07-24T05:09:57;33.38;;;24.50;;
50495;SDS011;38806;51.554;5.704;2022-07-24T05:11:57;29.60;;;24.48;;
50495;SDS011;38806;51.554;5.704;2022-07-24T05:13:57;32.25;;;24.70;;
50495;SDS011;38806;51.554;5.704;2022-07-24T05:15:58;36.45;;;28.45;;
50495;SDS011;38806;51.554;5.704;2022-07-24T05:17:58;36.05;;;26.90;;
50495;SDS011;38806;51.554;5.704;2022-07-24T05:19:58;38.60;;;28.02;;
50495;SDS011;38806;51.554;5.704;2022-07-24T05:21:59;36.72;;;25.77;;
50495;SDS011;38806;51.554;5.704;2022-07-24T05:23:59;35.80;;;25.75;;
50495;SDS011;38806;51.554;5.704;2022-07-24T05:26:01;35.83;;;27.42;;
50495;SDS011;38806;51.554;5.704;2022-07-24T05:28:02;40.63;;;28.75;;
50495;SDS011;38806;51.554;5.704;2022-07-24T05:30:04;36.50;;;25.55;;
50495;SDS011;38806;51.554;5.704;2022-07-24T05:32:05;39.40;;;28.65;;
50495;SDS011;38806;51.554;5.704;2022-07-24T05:34:05;34.60;;;26.45;;
50495;SDS011;38806;51.554;5.704;2022-07-24T05:36:06;37.55;;;26.33;;
50495;SDS011;38806;51.554;5.704;2022-07-24T05:38:07;38.88;;;25.30;;
50495;SDS011;38806;51.554;5.704;2022-07-24T05:40:07;35.75;;;26.30;;
50495;SDS011;38806;51.554;5.704;2022-07-24T05:42:08;34.90;;;26.67;;
50495;SDS011;38806;51.554;5.704;2022-07-24T05:44:08;38.63;;;29.15;;
50495;SDS011;38806;51.554;5.704;2022-07-24T05:46:08;40.97;;;28.00;;
50495;SDS011;38806;51.554;5.704;2022-07-24T05:48:09;34.88;;;26.38;;
50495;SDS011;38806;51.554;5.704;2022-07-24T05:50:10;39.88;;;28.13;;
50495;SDS011;38806;51.554;5.704;2022-07-24T05:52:11;35.95;;;27.85;;
50495;SDS011;38806;51.554;5.704;2022-07-24T05:54:12;41.78;;;29.15;;
50495;SDS011;38806;51.554;5.704;2022-07-24T05:56:12;34.83;;;26.95;;
50495;SDS011;38806;51.554;5.704;2022-07-24T05:58:12;41.28;;;29.80;;
50495;SDS011;38806;51.554;5.704;2022-07-24T06:00:13;36.50;;;28.92;;
50495;SDS011;38806;51.554;5.704;2022-07-24T06:02:15;43.30;;;29.83;;
50495;SDS011;38806;51.554;5.704;2022-07-24T06:04:15;40.10;;;32.05;;
50495;SDS011;38806;51.554;5.704;2022-07-24T06:06:15;46.20;;;32.75;;
50495;SDS011;38806;51.554;5.704;2022-07-24T06:08:15;47.15;;;33.25;;
50495;SDS011;38806;51.554;5.704;2022-07-24T06:10:16;41.88;;;30.27;;
50495;SDS011;38806;51.554;5.704;2022-07-24T06:12:16;40.70;;;30.75;;
50495;SDS011;38806;51.554;5.704;2022-07-24T06:14:16;42.95;;;31.75;;
50495;SDS011;38806;51.554;5.704;2022-07-24T06:16:17;40.28;;;29.02;;
50495;SDS011;38806;51.554;5.704;2022-07-24T06:18:17;43.33;;;32.08;;
50495;SDS011;38806;51.554;5.704;2022-07-24T06:20:17;38.70;;;27.88;;
50495;SDS011;38806;51.554;5.704;2022-07-24T06:22:18;41.60;;;27.63;;
50495;SDS011;38806;51.554;5.704;2022-07-24T06:24:18;34.75;;;25.02;;
50495;SDS011;38806;51.554;5.704;2022-07-24T06:26:18;38.20;;;25.40;;
50495;SDS011;38806;51.554;5.704;2022-07-24T06:28:19;37.35;;;25.10;;
50495;SDS011;38806;51.554;5.704;2022-07-24T06:30:21;33.95;;;24.85;;
50495;SDS011;38806;51.554;5.704;2022-07-24T06:32:23;37.08;;;27.10;;
50495;SDS011;38806;51.554;5.704;2022-07-24T06:34:23;30.85;;;23.65;;
50495;SDS011;38806;51.554;5.704;2022-07-24T06:36:24;34.13;;;22.88;;
50495;SDS011;38806;51.554;5.704;2022-07-24T06:38:24;31.88;;;22.10;;
50495;SDS011;38806;51.554;5.704;2022-07-24T06:40:25;32.15;;;22.52;;
50495;SDS011;38806;51.554;5.704;2022-07-24T06:42:25;30.83;;;20.65;;
50495;SDS011;38806;51.554;5.704;2022-07-24T06:44:25;27.65;;;19.70;;
50495;SDS011;38806;51.554;5.704;2022-07-24T06:46:26;26.27;;;20.58;;
50495;SDS011;38806;51.554;5.704;2022-07-24T06:48:26;25.27;;;19.08;;
50495;SDS011;38806;51.554;5.704;2022-07-24T06:50:27;24.50;;;16.70;;
50495;SDS011;38806;51.554;5.704;2022-07-24T06:52:27;24.25;;;17.65;;
50495;SDS011;38806;51.554;5.704;2022-07-24T06:54:28;25.17;;;17.13;;
50495;SDS011;38806;51.554;5.704;2022-07-24T06:56:28;20.85;;;15.45;;
50495;SDS011;38806;51.554;5.704;2022-07-24T06:58:28;22.55;;;15.27;;
50495;SDS011;38806;51.554;5.704;2022-07-24T07:00:29;24.35;;;16.50;;
50495;SDS011;38806;51.554;5.704;2022-07-24T07:02:29;21.70;;;16.35;;
50495;SDS011;38806;51.554;5.704;2022-07-24T07:04:29;17.27;;;14.05;;
50495;SDS011;38806;51.554;5.704;2022-07-24T07:06:29;20.25;;;15.40;;
50495;SDS011;38806;51.554;5.704;2022-07-24T07:08:30;21.52;;;15.55;;
50495;SDS011;38806;51.554;5.704;2022-07-24T07:10:30;21.70;;;14.60;;
50495;SDS011;38806;51.554;5.704;2022-07-24T07:12:30;20.80;;;16.48;;
50495;SDS011;38806;51.554;5.704;2022-07-24T07:14:31;20.52;;;15.10;;
50495;SDS011;38806;51.554;5.704;2022-07-24T07:16:31;21.75;;;15.15;;
50495;SDS011;38806;51.554;5.704;2022-07-24T07:18:32;25.10;;;16.27;;
50495;SDS011;38806;51.554;5.704;2022-07-24T07:20:32;19.15;;;15.38;;
50495;SDS011;38806;51.554;5.704;2022-07-24T07:22:32;21.98;;;13.95;;
50495;SDS011;38806;51.554;5.704;2022-07-24T07:24:33;17.40;;;12.98;;
50495;SDS011;38806;51.554;5.704;2022-07-24T07:26:33;21.15;;;13.65;;
50495;SDS011;38806;51.554;5.704;2022-07-24T07:28:33;16.23;;;12.52;;
50495;SDS011;38806;51.554;5.704;2022-07-24T07:30:33;18.58;;;11.60;;
50495;SDS011;38806;51.554;5.704;2022-07-24T07:32:34;17.75;;;14.02;;
50495;SDS011;38806;51.554;5.704;2022-07-24T07:34:34;17.38;;;11.18;;
50495;SDS011;38806;51.554;5.704;2022-07-24T07:36:34;17.33;;;11.90;;
50495;SDS011;38806;51.554;5.704;2022-07-24T07:38:35;14.55;;;11.38;;
50495;SDS011;38806;51.554;5.704;2022-07-24T07:40:37;14.18;;;10.48;;
50495;SDS011;38806;51.554;5.704;2022-07-24T07:42:37;17.40;;;11.60;;
50495;SDS011;38806;51.554;5.704;2022-07-24T07:44:38;13.48;;;9.93;;
50495;SDS011;38806;51.554;5.704;2022-07-24T07:46:38;12.48;;;8.93;;
50495;SDS011;38806;51.554;5.704;2022-07-24T07:48:38;10.65;;;8.48;;
50495;SDS011;38806;51.554;5.704;2022-07-24T07:50:39;11.85;;;8.60;;
50495;SDS011;38806;51.554;5.704;2022-07-24T07:52:39;22.45;;;7.93;;
50495;SDS011;38806;51.554;5.704;2022-07-24T07:54:40;9.90;;;7.00;;
50495;SDS011;38806;51.554;5.704;2022-07-24T07:56:40;11.65;;;7.03;;
50495;SDS011;38806;51.554;5.704;2022-07-24T07:58:41;10.48;;;6.20;;
50495;SDS011;38806;51.554;5.704;2022-07-24T08:00:41;9.57;;;7.35;;
50495;SDS011;38806;51.554;5.704;2022-07-24T08:02:41;8.63;;;5.40;;
50495;SDS011;38806;51.554;5.704;2022-07-24T08:04:42;10.60;;;6.30;;
50495;SDS011;38806;51.554;5.704;2022-07-24T08:06:42;8.80;;;6.35;;
50495;SDS011;38806;51.554;5.704;2022-07-24T08:08:42;7.97;;;5.78;;
50495;SDS011;38806;51.554;5.704;2022-07-24T08:10:43;8.30;;;6.32;;
50495;SDS011;38806;51.554;5.704;2022-07-24T08:12:43;9.30;;;5.22;;
50495;SDS011;38806;51.554;5.704;2022-07-24T08:14:43;6.82;;;4.32;;
50495;SDS011;38806;51.554;5.704;2022-07-24T08:16:44;6.63;;;4.93;;
50495;SDS011;38806;51.554;5.704;2022-07-24T08:18:44;6.68;;;4.70;;
50495;SDS011;38806;51.554;5.704;2022-07-24T08:20:44;6.53;;;4.53;;
50495;SDS011;38806;51.554;5.704;2022-07-24T08:22:45;6.03;;;4.15;;
50495;SDS011;38806;51.554;5.704;2022-07-24T08:24:45;7.80;;;4.38;;
50495;SDS011;38806;51.554;5.704;2022-07-24T08:26:46;8.10;;;4.10;;
50495;SDS011;38806;51.554;5.704;2022-07-24T08:28:47;6.72;;;4.47;;
50495;SDS011;38806;51.554;5.704;2022-07-24T08:30:47;7.97;;;3.50;;
50495;SDS011;38806;51.554;5.704;2022-07-24T08:32:48;5.35;;;3.65;;
50495;SDS011;38806;51.554;5.704;2022-07-24T08:34:49;8.95;;;4.43;;
50495;SDS011;38806;51.554;5.704;2022-07-24T08:36:49;8.27;;;3.97;;
50495;SDS011;38806;51.554;5.704;2022-07-24T08:38:50;6.72;;;3.85;;
50495;SDS011;38806;51.554;5.704;2022-07-24T08:40:50;6.00;;;3.53;;
50495;SDS011;38806;51.554;5.704;2022-07-24T08:42:51;7.32;;;4.70;;
50495;SDS011;38806;51.554;5.704;2022-07-24T08:44:52;9.15;;;3.28;;
50495;SDS011;38806;51.554;5.704;2022-07-24T08:46:53;5.25;;;3.60;;
50495;SDS011;38806;51.554;5.704;2022-07-24T08:48:54;4.53;;;3.10;;
50495;SDS011;38806;51.554;5.704;2022-07-24T08:50:55;5.18;;;3.00;;
50495;SDS011;38806;51.554;5.704;2022-07-24T08:52:56;5.88;;;3.50;;
50495;SDS011;38806;51.554;5.704;2022-07-24T08:54:57;7.90;;;3.30;;
50495;SDS011;38806;51.554;5.704;2022-07-24T08:56:57;5.37;;;3.00;;
50495;SDS011;38806;51.554;5.704;2022-07-24T08:58:58;4.93;;;2.83;;
50495;SDS011;38806;51.554;5.704;2022-07-24T09:00:58;8.17;;;3.40;;
50495;SDS011;38806;51.554;5.704;2022-07-24T09:02:58;5.03;;;2.90;;
50495;SDS011;38806;51.554;5.704;2022-07-24T09:04:59;10.00;;;4.35;;
50495;SDS011;38806;51.554;5.704;2022-07-24T09:07:01;3.90;;;2.58;;
50495;SDS011;38806;51.554;5.704;2022-07-24T09:09:06;5.15;;;2.92;;
50495;SDS011;38806;51.554;5.704;2022-07-24T09:11:07;3.97;;;2.63;;
50495;SDS011;38806;51.554;5.704;2022-07-24T09:13:13;5.82;;;2.72;;
50495;SDS011;38806;51.554;5.704;2022-07-24T09:15:15;4.32;;;3.15;;
50495;SDS011;38806;51.554;5.704;2022-07-24T09:17:18;6.47;;;3.20;;
50495;SDS011;38806;51.554;5.704;2022-07-24T09:19:19;4.80;;;3.08;;
50495;SDS011;38806;51.554;5.704;2022-07-24T09:21:21;4.53;;;2.72;;
50495;SDS011;38806;51.554;5.704;2022-07-24T09:23:22;4.03;;;2.47;;
50495;SDS011;38806;51.554;5.704;2022-07-24T09:25:23;4.95;;;2.70;;
50495;SDS011;38806;51.554;5.704;2022-07-24T09:27:28;4.38;;;2.60;;
50495;SDS011;38806;51.554;5.704;2022-07-24T09:29:28;3.60;;;2.28;;
50495;SDS011;38806;51.554;5.704;2022-07-24T09:31:33;3.70;;;2.30;;
50495;SDS011;38806;51.554;5.704;2022-07-24T09:33:49;5.63;;;2.88;;
50495;SDS011;38806;51.554;5.704;2022-07-24T09:35:51;4.10;;;1.98;;
50495;SDS011;38806;51.554;5.704;2022-07-24T09:37:53;3.75;;;2.60;;
50495;SDS011;38806;51.554;5.704;2022-07-24T09:40:05;6.40;;;2.30;;
50495;SDS011;38806;51.554;5.704;2022-07-24T09:42:07;2.33;;;2.13;;
50495;SDS011;38806;51.554;5.704;2022-07-24T09:44:07;2.72;;;2.28;;
50495;SDS011;38806;51.554;5.704;2022-07-24T09:46:13;3.90;;;2.38;;
50495;SDS011;38806;51.554;5.704;2022-07-24T09:48:15;2.97;;;1.95;;
50495;SDS011;38806;51.554;5.704;2022-07-24T09:50:16;5.93;;;2.42;;
50495;SDS011;38806;51.554;5.704;2022-07-24T09:52:17;2.25;;;1.65;;
50495;SDS011;38806;51.554;5.704;2022-07-24T09:54:27;4.00;;;2.50;;
50495;SDS011;38806;51.554;5.704;2022-07-24T09:56:30;3.47;;;2.45;;
50495;SDS011;38806;51.554;5.704;2022-07-24T09:58:32;3.10;;;1.92;;
50495;SDS011;38806;51.554;5.704;2022-07-24T10:00:34;2.92;;;2.20;;
50495;SDS011;38806;51.554;5.704;2022-07-24T10:02:36;5.10;;;3.00;;
50495;SDS011;38806;51.554;5.704;2022-07-24T10:04:36;4.45;;;2.20;;
50495;SDS011;38806;51.554;5.704;2022-07-24T10:06:37;2.80;;;2.20;;
50495;SDS011;38806;51.554;5.704;2022-07-24T10:08:40;3.65;;;2.03;;
50495;SDS011;38806;51.554;5.704;2022-07-24T10:10:42;2.72;;;1.85;;
50495;SDS011;38806;51.554;5.704;2022-07-24T10:12:44;2.95;;;2.13;;
50495;SDS011;38806;51.554;5.704;2022-07-24T10:14:47;5.68;;;2.22;;
50495;SDS011;38806;51.554;5.704;2022-07-24T10:16:53;3.72;;;1.75;;
50495;SDS011;38806;51.554;5.704;2022-07-24T10:19:05;3.90;;;1.98;;
50495;SDS011;38806;51.554;5.704;2022-07-24T10:21:06;4.18;;;2.22;;
50495;SDS011;38806;51.554;5.704;2022-07-24T10:23:16;2.42;;;1.63;;
50495;SDS011;38806;51.554;5.704;2022-07-24T10:25:21;3.00;;;2.28;;
50495;SDS011;38806;51.554;5.704;2022-07-24T10:27:26;2.65;;;2.00;;
50495;SDS011;38806;51.554;5.704;2022-07-24T10:29:28;3.58;;;2.30;;
50495;SDS011;38806;51.554;5.704;2022-07-24T10:31:30;3.65;;;2.38;;
50495;SDS011;38806;51.554;5.704;2022-07-24T10:33:30;16.50;;;2.25;;
50495;SDS011;38806;51.554;5.704;2022-07-24T10:35:31;3.08;;;2.25;;
50495;SDS011;38806;51.554;5.704;2022-07-24T10:39:53;2.83;;;1.95;;
50495;SDS011;38806;51.554;5.704;2022-07-24T10:42:13;2.90;;;1.75;;
50495;SDS011;38806;51.554;5.704;2022-07-24T10:44:19;2.15;;;1.63;;
50495;SDS011;38806;51.554;5.704;2022-07-24T10:46:20;5.90;;;2.03;;
50495;SDS011;38806;51.554;5.704;2022-07-24T10:50:21;4.05;;;2.08;;
50495;SDS011;38806;51.554;5.704;2022-07-24T10:52:30;2.97;;;1.88;;
50495;SDS011;38806;51.554;5.704;2022-07-24T10:54:32;3.17;;;2.00;;
50495;SDS011;38806;51.554;5.704;2022-07-24T10:58:41;2.77;;;1.80;;
50495;SDS011;38806;51.554;5.704;2022-07-24T11:01:26;6.80;;;2.05;;
50495;SDS011;38806;51.554;5.704;2022-07-24T11:03:30;3.65;;;2.33;;
50495;SDS011;38806;51.554;5.704;2022-07-24T11:05:37;2.22;;;1.70;;
50495;SDS011;38806;51.554;5.704;2022-07-24T11:07:38;2.97;;;2.05;;
50495;SDS011;38806;51.554;5.704;2022-07-24T11:10:45;3.20;;;1.80;;
50495;SDS011;38806;51.554;5.704;2022-07-24T11:12:47;4.57;;;2.10;;
50495;SDS011;38806;51.554;5.704;2022-07-24T11:14:48;4.25;;;2.70;;
50495;SDS011;38806;51.554;5.704;2022-07-24T11:16:49;4.65;;;1.90;;
50495;SDS011;38806;51.554;5.704;2022-07-24T11:20:51;4.80;;;2.50;;
50495;SDS011;38806;51.554;5.704;2022-07-24T11:22:59;3.05;;;1.85;;
50495;SDS011;38806;51.554;5.704;2022-07-24T11:25:06;2.87;;;2.20;;
50495;SDS011;38806;51.554;5.704;2022-07-24T11:27:13;2.22;;;1.55;;
50495;SDS011;38806;51.554;5.704;2022-07-24T11:29:20;2.25;;;1.80;;
50495;SDS011;38806;51.554;5.704;2022-07-24T11:31:29;3.67;;;1.90;;
50495;SDS011;38806;51.554;5.704;2022-07-24T11:33:30;3.30;;;1.98;;
50495;SDS011;38806;51.554;5.704;2022-07-24T11:35:35;2.88;;;1.92;;
50495;SDS011;38806;51.554;5.704;2022-07-24T11:37:37;2.47;;;1.98;;
50495;SDS011;38806;51.554;5.704;2022-07-24T11:39:39;3.47;;;2.03;;
50495;SDS011;38806;51.554;5.704;2022-07-24T11:41:44;2.88;;;2.60;;
50495;SDS011;38806;51.554;5.704;2022-07-24T11:43:52;3.20;;;2.00;;
50495;SDS011;38806;51.554;5.704;2022-07-24T11:45:53;4.70;;;2.28;;
50495;SDS011;38806;51.554;5.704;2022-07-24T11:47:53;2.80;;;2.20;;
50495;SDS011;38806;51.554;5.704;2022-07-24T11:49:56;3.33;;;2.50;;
50495;SDS011;38806;51.554;5.704;2022-07-24T11:51:59;4.95;;;2.85;;
50495;SDS011;38806;51.554;5.704;2022-07-24T11:53:59;3.67;;;3.03;;
50495;SDS011;38806;51.554;5.704;2022-07-24T11:56:02;4.22;;;2.20;;
50495;SDS011;38806;51.554;5.704;2022-07-24T11:58:03;3.17;;;2.35;;
50495;SDS011;38806;51.554;5.704;2022-07-24T12:00:23;4.23;;;2.30;;
50495;SDS011;38806;51.554;5.704;2022-07-24T12:02:25;3.63;;;2.60;;
50495;SDS011;38806;51.554;5.704;2022-07-24T12:04:26;3.60;;;2.42;;
50495;SDS011;38806;51.554;5.704;2022-07-24T12:06:26;4.13;;;2.40;;